Muzaffargarh Weather



Muzaffargarh's Current Weather

Temprature 29o smoke

smoke

Rain: 0 %

Min Temprature29o
Max Temprature29o
Humidity58
Wind Speed7 m/h
Sun Rise05:46:57
Sun Set18:49:30
Current Time: 23-Aug-2019 05:05:17
Lat/Lon: 30.08, 71.19




Muzaffargarh's Geo Location



Muzaffargarh's Weather Forecast

Time Overall Temp Min Temp Max Temp Humidity Wind Speed Rain
23-Aug-2019 (Fri)
08:00:00 clear sky 32.310 32.310 36.107 26 7.79 m/h 0 %
11:00:00 clear sky 39.100 39.100 41.950 18 5.69 m/h 0 %
14:00:00 clear sky 42.530 42.530 44.431 13 4.5 m/h 0 %
17:00:00 few clouds 41.860 41.860 42.811 14 6.23 m/h 0 %
20:00:00 broken clouds 37.950 37.950 37.950 19 4.87 m/h 0 %
23:00:00 scattered clouds 36.342 36.342 36.342 22 7.57 m/h 0 %
24-Aug-2019 (Sat)
02:00:00 clear sky 35.031 35.031 35.031 27 9.5 m/h 0 %
05:00:00 clear sky 33.755 33.755 33.755 32 7.47 m/h 0 %
08:00:00 clear sky 36.547 36.547 36.547 30 8.44 m/h 0 %
11:00:00 clear sky 41.369 41.369 41.369 21 8.56 m/h 0 %
14:00:00 clear sky 44.169 44.169 44.169 15 7.6 m/h 0 %
17:00:00 clear sky 43.023 43.023 43.023 15 6.63 m/h 0 %
20:00:00 clear sky 37.250 37.250 37.250 21 4.37 m/h 0 %
23:00:00 clear sky 36.369 36.369 36.369 23 7.21 m/h 0 %
25-Aug-2019 (Sun)
02:00:00 clear sky 34.631 34.631 34.631 23 7.39 m/h 0 %
05:00:00 clear sky 33.957 33.957 33.957 24 6.8 m/h 0 %
08:00:00 clear sky 36.814 36.814 36.814 27 7.57 m/h 0 %
11:00:00 clear sky 41.616 41.616 41.616 21 8.89 m/h 0 %
14:00:00 clear sky 45.050 45.050 45.050 14 6.76 m/h 0 %
17:00:00 clear sky 43.450 43.450 43.450 14 5.79 m/h 0 %
20:00:00 clear sky 37.481 37.481 37.481 22 4.81 m/h 0 %
23:00:00 clear sky 36.311 36.311 36.311 25 7.7 m/h 0 %
26-Aug-2019 (Mon)
02:00:00 scattered clouds 35.665 35.665 35.665 27 8.12 m/h 0 %
05:00:00 broken clouds 33.250 33.250 33.250 31 4.13 m/h 0 %
08:00:00 overcast clouds 36.867 36.867 36.867 26 4.24 m/h 0 %
11:00:00 scattered clouds 43.272 43.272 43.272 17 0.83 m/h 0 %
14:00:00 overcast clouds 46.284 46.284 46.284 12 1.25 m/h 0 %
17:00:00 overcast clouds 43.020 43.020 43.020 14 2.99 m/h 0 %
20:00:00 overcast clouds 38.272 38.272 38.272 18 0.79 m/h 0 %
23:00:00 overcast clouds 36.114 36.114 36.114 21 2.25 m/h 0 %
27-Aug-2019 (Tue)
02:00:00 broken clouds 33.216 33.216 33.216 26 1.94 m/h 0 %
05:00:00 broken clouds 31.450 31.450 31.450 30 2.96 m/h 0 %
08:00:00 clear sky 36.035 36.035 36.035 28 2.95 m/h 0 %
11:00:00 scattered clouds 42.336 42.336 42.336 20 4.04 m/h 0 %
14:00:00 overcast clouds 45.036 45.036 45.036 16 4.15 m/h 0 %
17:00:00 overcast clouds 40.265 40.265 40.265 25 8.43 m/h 0 %
20:00:00 broken clouds 37.850 37.850 37.850 27 4.02 m/h 0 %
23:00:00 scattered clouds 34.650 34.650 34.650 38 2.15 m/h 0 %
28-Aug-2019 (Wed)
02:00:00 clear sky 33.657 33.657 33.657 40 1.81 m/h 0 %
05:00:00 clear sky 33.272 33.272 33.272 40 0.61 m/h 0 %

Famous Cities (61)